Nearby METAR Reports

 

KDFW - Dallas/Ft Worth, Texas, USA
Distance from station: NE 8mi, 14km
Updated: 09/23/2018 19:53pm
Overcast
Overcast
 Wind from N
Wind: N 9 mph , 15 km/h
Temperature: 70°F , 21°C
Dew Point: 68°F , 20°C
Humidity: 94%
Barometer: 29.87 inHg , 1011.5 hPa
Clouds: Overcast
Visibility: 10 miles , 16 km
Cloud details: Mostly cloudy 600 ft
Overcast 1400 ft
2018/09/24 00:53 KDFW 240053Z 01008KT 10SM BKN006 OVC014 21/20 A2987 RMK AO2 SLP108 T02110200 $
KFTW - Fort Worth, Texas, USA
Distance from station: W 13mi, 21km
Updated: 09/23/2018 19:53pm
Overcast
Overcast
 Wind from N
Wind: N 7 mph , 11 km/h
Temperature: 63°F , 17°C
Barometer: 29.88 inHg , 1011.9 hPa
Clouds: Overcast
Visibility: 10 miles , 16 km
Cloud details: Overcast 600 ft
2018/09/24 00:53 KFTW 240053Z 36006KT 10SM OVC006 17/ A2988 RMK AO2 SLP115 T0172 $
 
KAFW - Ft Worth/Allianc, Texas, USA
Distance from station: NW 14mi, 22km
Updated: 09/23/2018 19:53pm
Overcast
Overcast
 Wind from NNE
Wind: NNE 9 mph , 15 km/h
Temperature: 70°F , 21°C
Dew Point: 68°F , 20°C
Humidity: 94%
Barometer: 29.89 inHg , 1012.2 hPa
Clouds: Overcast
Visibility: 10 miles , 16 km
Cloud details: Overcast 700 ft
2018/09/24 00:53 KAFW 240053Z 02008KT 10SM OVC007 21/20 A2989 RMK AO2 CIG 005V010 SLP112 T02110200 $
KDAL - Dallas/Love Fld, Texas, USA
Distance from station: E 17mi, 27km
Updated: 09/23/2018 19:53pm
Overcast
Overcast
 Wind from N
Wind: N 6 mph , 9 km/h
Temperature: 72°F , 22°C
Dew Point: 70°F , 21°C
Humidity: 94%
Barometer: 29.88 inHg , 1011.9 hPa
Clouds: Overcast
Visibility: 10 miles , 16 km
Cloud details: Partly cloudy 700 ft
Overcast 1300 ft
2018/09/24 00:53 KDAL 240053Z 36005KT 10SM SCT007 OVC013 22/21 A2988 RMK AO2 SLP112 BINOVC T02220211 $
 
KNFW - Fort Worth Nas, Texas, USA
Distance from station: WSW 17mi, 28km
Updated: 09/23/2018 19:52pm
Overcast
Overcast
 Wind from N
Wind: N 7 mph , 11 km/h
Temperature: 72°F , 22°C
Dew Point: 66°F , 19°C
Humidity: 83%
Barometer: 29.89 inHg , 1012.2 hPa
Clouds: Overcast
Visibility: 10 miles , 16 km
Cloud details: Overcast 900 ft
2018/09/24 00:52 KNFW 240052Z AUTO 36006KT 10SM OVC009 22/19 A2989 RMK AO2 SLP107 T02170194 $
KRBD - Dallas/Redbird, Texas, USA
Distance from station: ESE 19mi, 30km
Updated: 09/23/2018 19:53pm
Overcast
Overcast
 Wind from NNW
Wind: NNW 5 mph , 7 km/h
Temperature: 72°F , 22°C
Dew Point: 68°F , 20°C
Humidity: 88%
Barometer: 29.87 inHg , 1011.5 hPa
Clouds: Overcast
Visibility: 10 miles , 16 km
Cloud details: Overcast 1400 ft
2018/09/24 00:53 KRBD 240053Z 34004KT 10SM OVC014 22/20 A2987 RMK AO2 SLP110 T02170200
 
KFWS - Fort Worth/Spinks, Texas, USA
Distance from station: SSW 21mi, 33km
Updated: 09/23/2018 20:15pm
Mist, Overcast
Mist, Overcast
 Wind from N
Wind: N 5 mph , 7 km/h
Temperature: 70°F , 21°C
Dew Point: 68°F , 20°C
Humidity: 94%
Barometer: 29.91 inHg , 1012.9 hPa
Summary: Mist
Clouds: Overcast
Visibility: 5 miles , 8 km
Cloud details: Mostly cloudy 900 ft
Overcast 1300 ft
2018/09/24 01:15 KFWS 240115Z AUTO 01004KT 5SM BR BKN009 OVC013 21/20 A2991 RMK AO2 T02100197
KADS - Dallas/Addison, Texas, USA
Distance from station: ENE 21mi, 34km
Updated: 09/23/2018 18:47pm
NOT Current
Mist, Overcast
Mist, Overcast
 Wind from NNW
Wind: NNW 3 mph , 6 km/h
Temperature: 70°F , 21°C
Dew Point: 68°F , 20°C
Humidity: 94%
Barometer: 29.89 inHg , 1012.2 hPa
Summary: Mist
Clouds: Overcast
Visibility: 2 miles , 3 km
Cloud details: Overcast 600 ft
2018/09/23 23:47 KADS 232347Z 34003KT 2SM BR OVC006 21/20 A2989
 
KDTO - Denton, Texas, USA
Distance from station: N 26mi, 41km
Updated: 09/23/2018 19:53pm
Mist, Overcast
Mist, Overcast
 Wind from N
Wind: N 5 mph , 7 km/h
Temperature: 68°F , 20°C
Dew Point: 66°F , 19°C
Humidity: 94%
Barometer: 29.89 inHg , 1012.2 hPa
Summary: Mist
Clouds: Overcast
Visibility: 4 miles , 6 km
Cloud details: Overcast 600 ft
2018/09/24 00:53 KDTO 240053Z 36004KT 4SM BR OVC006 20/19 A2989 RMK AO2 SLP116 T02000194
KLUD - Decatur, Texas, USA
Distance from station: NW 39mi, 62km
Updated: 09/23/2018 20:15pm
Overcast
Overcast
 Wind from NE
Wind: NE 5 mph , 7 km/h
Temperature: 68°F , 20°C
Dew Point: 66°F , 19°C
Humidity: 94%
Barometer: 29.91 inHg , 1012.9 hPa
Clouds: Overcast
Visibility: 10 miles , 16 km
Cloud details: Mostly cloudy 700 ft
Overcast 1200 ft
2018/09/24 01:15 KLUD 240115Z AUTO 04004KT 10SM BKN007 OVC012 20/19 A2991 RMK AO2 T02000190
 
KSPS - Wichita Falls/Sheppard AFB, Texas, USA
Distance from station: NW 111mi, 179km
Updated: 09/23/2018 19:52pm
Overcast
Overcast
 Wind from E
Wind: E 5 mph , 7 km/h
Temperature: 70°F , 21°C
Dew Point: 66°F , 19°C
Humidity: 88%
Barometer: 29.91 inHg , 1012.9 hPa
Clouds: Overcast
Visibility: 10 miles , 16 km
Cloud details: Overcast 2300 ft
2018/09/24 00:52 KSPS 240052Z AUTO 10004KT 10SM OVC023 21/19 A2991 RMK AO2 SLP119 T02110189